Pagrindinis puslapis
METAR-TAF:

METAR-TAF

Oro uostai :

Såtenäs, Švedija

platuma: 58-26N, ilguma: 012-42E, Aukštis: 54 m

Dabartinis oras

Ataskaita buvo paskelbta 33 minutes, ne 01:20 UTC
Vėjas 2 kt iš Pietryčių
Temperatūra 10°C
Drėgmė 87%
Slėgis 1018 hPa
Matomumas 10 km arba daugiau

METAR: ESIB 170120Z AUTO 14002KT 9999 NCD 10/08 Q1018

Laikas: 03:53 (01:53 UTC)

Prognozė

Ataskaita buvo paskelbta 14 valandos ir 23 minutes, ne 11:30 UTC
Prognozė galioja nuo 16 metu 12 UTC su 16 metu 15 UTC
Vėjas 13 kt iš Pietvakarių su gūsio iki 20 kt
Matomumas 10 km arba daugiau
nėra debesų žemiau 1500 m ir nėra kamuolinių lietaus debesų

TAF: ESIB 161130Z 1612/1615 23013G20KT CAVOK RMK MIL

Orai ataskaitas ir orų prognozės (METAR, TAF).

turimą stotys yra geltonos ir raudonos taškus žemėlapyje.

Perkelti pele per norėdami pamatyti stoties vardą.

Tada spustelėkite, norėdami matyti oro stebėjimo ir prognozės.

Norėdami pakeisti žemėlapį: spustelėkite ant žalios mygtukų su juodo kryžiaus žemyn,; žalią mygtuką su brūkšneliu, jei norite nutolinti; arba žalių rodyklių gretimoms žemėlapius.


METAR-TAF: